sensor_id;sensor_type;location;lat;lon;timestamp;pressure;altitude;pressure_sealevel;temperature;humidity
73870;BME280;64924;42.140;24.762;2023-05-23T00:00:20;99337.81;;;18.24;57.07
73870;BME280;64924;42.140;24.762;2023-05-23T00:02:46;99350.16;;;18.22;57.30
73870;BME280;64924;42.140;24.762;2023-05-23T00:05:12;99299.56;;;18.01;56.93
73870;BME280;64924;42.140;24.762;2023-05-23T00:07:39;99334.00;;;18.25;57.20
73870;BME280;64924;42.140;24.762;2023-05-23T00:10:05;99340.72;;;18.13;57.43
73870;BME280;64924;42.140;24.762;2023-05-23T00:12:31;99327.56;;;17.98;57.27
73870;BME280;64924;42.140;24.762;2023-05-23T00:14:58;99347.03;;;18.13;57.38
73870;BME280;64924;42.140;24.762;2023-05-23T00:17:23;99341.22;;;18.10;57.04
73870;BME280;64924;42.140;24.762;2023-05-23T00:19:52;99301.75;;;17.82;57.09
73870;BME280;64924;42.140;24.762;2023-05-23T00:22:17;99344.97;;;18.03;57.03
73870;BME280;64924;42.140;24.762;2023-05-23T00:24:43;99345.13;;;17.97;57.18
73870;BME280;64924;42.140;24.762;2023-05-23T00:27:08;99330.81;;;17.95;57.08
73870;BME280;64924;42.140;24.762;2023-05-23T00:29:34;99330.72;;;17.90;57.63
73870;BME280;64924;42.140;24.762;2023-05-23T00:31:59;99332.41;;;17.74;57.64
73870;BME280;64924;42.140;24.762;2023-05-23T00:34:25;99332.59;;;17.67;58.08
73870;BME280;64924;42.140;24.762;2023-05-23T00:36:50;99330.56;;;17.63;58.08
73870;BME280;64924;42.140;24.762;2023-05-23T00:39:16;99348.06;;;17.74;57.94
73870;BME280;64924;42.140;24.762;2023-05-23T00:41:52;99326.44;;;17.77;57.91
73870;BME280;64924;42.140;24.762;2023-05-23T00:44:19;99337.25;;;17.67;58.21
73870;BME280;64924;42.140;24.762;2023-05-23T00:46:47;99303.97;;;17.52;57.83
73870;BME280;64924;42.140;24.762;2023-05-23T00:49:14;99322.69;;;17.66;57.89
73870;BME280;64924;42.140;24.762;2023-05-23T00:51:40;99328.06;;;17.95;57.13
73870;BME280;64924;42.140;24.762;2023-05-23T00:54:08;99328.22;;;18.05;56.97
73870;BME280;64924;42.140;24.762;2023-05-23T00:56:34;99323.03;;;18.09;56.60
73870;BME280;64924;42.140;24.762;2023-05-23T00:59:00;99327.38;;;18.04;57.01
73870;BME280;64924;42.140;24.762;2023-05-23T01:01:26;99282.47;;;17.77;57.13
73870;BME280;64924;42.140;24.762;2023-05-23T01:03:52;99313.81;;;17.98;57.18
73870;BME280;64924;42.140;24.762;2023-05-23T01:06:17;99300.41;;;18.01;56.92
73870;BME280;64924;42.140;24.762;2023-05-23T01:08:43;99324.66;;;17.88;57.37
73870;BME280;64924;42.140;24.762;2023-05-23T01:11:23;99324.16;;;17.91;57.50
73870;BME280;64924;42.140;24.762;2023-05-23T01:14:14;99307.81;;;17.84;57.69
73870;BME280;64924;42.140;24.762;2023-05-23T01:16:48;99290.59;;;17.38;58.48
73870;BME280;64924;42.140;24.762;2023-05-23T01:22:20;99320.59;;;17.74;57.87
73870;BME280;64924;42.140;24.762;2023-05-23T01:24:57;99276.78;;;17.33;58.27
73870;BME280;64924;42.140;24.762;2023-05-23T01:30:03;99315.72;;;17.47;58.74
73870;BME280;64924;42.140;24.762;2023-05-23T01:32:32;99314.34;;;17.45;58.61
73870;BME280;64924;42.140;24.762;2023-05-23T01:34:58;99326.31;;;17.38;59.27
73870;BME280;64924;42.140;24.762;2023-05-23T01:37:25;99326.47;;;17.32;59.04
73870;BME280;64924;42.140;24.762;2023-05-23T01:39:50;99221.97;;;16.77;59.02
73870;BME280;64924;42.140;24.762;2023-05-23T01:42:16;99321.22;;;17.30;58.75
73870;BME280;64924;42.140;24.762;2023-05-23T01:44:44;99321.31;;;17.35;58.97
73870;BME280;64924;42.140;24.762;2023-05-23T01:47:10;99318.78;;;17.17;59.41
73870;BME280;64924;42.140;24.762;2023-05-23T01:49:36;99322.44;;;17.06;59.44
73870;BME280;64924;42.140;24.762;2023-05-23T01:52:03;99308.03;;;16.99;59.54
73870;BME280;64924;42.140;24.762;2023-05-23T01:54:29;99314.03;;;17.13;59.44
73870;BME280;64924;42.140;24.762;2023-05-23T01:56:56;99312.69;;;17.15;59.45
73870;BME280;64924;42.140;24.762;2023-05-23T01:59:23;99308.88;;;17.16;59.06
73870;BME280;64924;42.140;24.762;2023-05-23T02:01:48;99318.38;;;17.25;58.98
73870;BME280;64924;42.140;24.762;2023-05-23T02:04:14;99312.56;;;17.38;58.29
73870;BME280;64924;42.140;24.762;2023-05-23T02:06:40;99313.41;;;17.39;58.40
73870;BME280;64924;42.140;24.762;2023-05-23T02:09:06;99311.84;;;17.43;57.83
73870;BME280;64924;42.140;24.762;2023-05-23T02:11:32;99309.81;;;17.38;58.04
73870;BME280;64924;42.140;24.762;2023-05-23T02:13:58;99289.53;;;17.40;57.64
73870;BME280;64924;42.140;24.762;2023-05-23T02:16:24;99301.09;;;17.42;57.07
73870;BME280;64924;42.140;24.762;2023-05-23T02:18:50;99306.41;;;17.48;56.70
73870;BME280;64924;42.140;24.762;2023-05-23T02:21:17;99268.78;;;17.15;56.86
73870;BME280;64924;42.140;24.762;2023-05-23T02:23:43;99273.09;;;17.11;56.49
73870;BME280;64924;42.140;24.762;2023-05-23T02:26:08;99305.97;;;17.23;56.91
73870;BME280;64924;42.140;24.762;2023-05-23T02:28:34;99275.69;;;17.01;57.02
73870;BME280;64924;42.140;24.762;2023-05-23T02:31:00;99305.97;;;17.23;57.31
73870;BME280;64924;42.140;24.762;2023-05-23T02:33:26;99300.22;;;17.24;57.01
73870;BME280;64924;42.140;24.762;2023-05-23T02:35:51;99315.66;;;17.42;56.62
73870;BME280;64924;42.140;24.762;2023-05-23T02:38:19;99293.47;;;17.15;57.08
73870;BME280;64924;42.140;24.762;2023-05-23T02:40:45;99297.31;;;17.14;57.23
73870;BME280;64924;42.140;24.762;2023-05-23T02:43:11;99319.78;;;17.28;57.30
73870;BME280;64924;42.140;24.762;2023-05-23T02:45:36;99321.13;;;17.25;56.85
73870;BME280;64924;42.140;24.762;2023-05-23T02:48:01;99312.00;;;17.08;57.75
73870;BME280;64924;42.140;24.762;2023-05-23T02:50:27;99310.63;;;17.22;57.18
73870;BME280;64924;42.140;24.762;2023-05-23T02:52:52;99307.56;;;17.35;57.04
73870;BME280;64924;42.140;24.762;2023-05-23T02:55:18;99261.84;;;17.13;56.59
73870;BME280;64924;42.140;24.762;2023-05-23T02:57:43;99309.00;;;17.38;56.57
73870;BME280;64924;42.140;24.762;2023-05-23T03:00:09;99313.13;;;17.24;56.89
73870;BME280;64924;42.140;24.762;2023-05-23T03:02:36;99301.72;;;17.15;57.15
73870;BME280;64924;42.140;24.762;2023-05-23T03:05:02;99302.06;;;17.19;57.36
73870;BME280;64924;42.140;24.762;2023-05-23T03:07:28;99311.72;;;17.21;57.54
73870;BME280;64924;42.140;24.762;2023-05-23T03:09:55;99304.81;;;17.35;56.83
73870;BME280;64924;42.140;24.762;2023-05-23T03:12:20;99296.84;;;17.34;56.70
73870;BME280;64924;42.140;24.762;2023-05-23T03:14:46;99300.16;;;17.36;56.50
73870;BME280;64924;42.140;24.762;2023-05-23T03:17:12;99298.66;;;17.45;56.16
73870;BME280;64924;42.140;24.762;2023-05-23T03:19:37;99304.66;;;17.59;56.06
73870;BME280;64924;42.140;24.762;2023-05-23T03:22:03;99291.00;;;17.30;56.55
73870;BME280;64924;42.140;24.762;2023-05-23T03:24:28;99302.81;;;17.48;56.40
73870;BME280;64924;42.140;24.762;2023-05-23T03:26:56;99322.38;;;17.51;56.14
73870;BME280;64924;42.140;24.762;2023-05-23T03:29:21;99317.72;;;17.52;56.47
73870;BME280;64924;42.140;24.762;2023-05-23T03:31:47;99301.09;;;17.42;56.54
73870;BME280;64924;42.140;24.762;2023-05-23T03:34:12;99309.91;;;17.44;56.44
73870;BME280;64924;42.140;24.762;2023-05-23T03:36:38;99307.56;;;17.52;56.26
73870;BME280;64924;42.140;24.762;2023-05-23T03:39:04;99265.38;;;17.42;56.23
73870;BME280;64924;42.140;24.762;2023-05-23T03:41:30;99309.34;;;17.75;55.79
73870;BME280;64924;42.140;24.762;2023-05-23T03:43:55;99295.38;;;17.77;55.46
73870;BME280;64924;42.140;24.762;2023-05-23T03:46:21;99303.94;;;17.80;55.39
73870;BME280;64924;42.140;24.762;2023-05-23T03:48:46;99304.50;;;17.82;55.09
73870;BME280;64924;42.140;24.762;2023-05-23T03:51:12;99263.13;;;17.55;55.33
73870;BME280;64924;42.140;24.762;2023-05-23T03:53:38;99293.44;;;17.77;54.74
73870;BME280;64924;42.140;24.762;2023-05-23T03:56:03;99306.22;;;17.88;54.43
73870;BME280;64924;42.140;24.762;2023-05-23T03:58:29;99301.06;;;18.09;53.74
73870;BME280;64924;42.140;24.762;2023-05-23T04:00:54;99301.78;;;18.43;52.74
73870;BME280;64924;42.140;24.762;2023-05-23T04:03:20;99299.03;;;18.64;52.29
73870;BME280;64924;42.140;24.762;2023-05-23T04:05:45;99300.31;;;18.79;51.54
73870;BME280;64924;42.140;24.762;2023-05-23T04:08:11;99307.38;;;19.23;50.61
73870;BME280;64924;42.140;24.762;2023-05-23T04:10:37;99305.41;;;19.83;48.54
73870;BME280;64924;42.140;24.762;2023-05-23T04:13:02;99304.25;;;20.16;47.68
73870;BME280;64924;42.140;24.762;2023-05-23T04:15:28;99311.88;;;21.23;44.92
73870;BME280;64924;42.140;24.762;2023-05-23T04:17:54;99299.06;;;22.44;42.14
73870;BME280;64924;42.140;24.762;2023-05-23T04:20:20;99269.81;;;23.26;39.89
73870;BME280;64924;42.140;24.762;2023-05-23T04:22:46;99302.06;;;24.43;37.83
73870;BME280;64924;42.140;24.762;2023-05-23T04:25:12;99303.78;;;25.24;36.13
73870;BME280;64924;42.140;24.762;2023-05-23T04:27:38;99293.41;;;25.81;34.85
73870;BME280;64924;42.140;24.762;2023-05-23T04:30:07;99296.41;;;26.31;33.36
73870;BME280;64924;42.140;24.762;2023-05-23T04:32:34;99298.47;;;26.67;32.95
73870;BME280;64924;42.140;24.762;2023-05-23T04:35:00;99300.72;;;27.42;32.08
73870;BME280;64924;42.140;24.762;2023-05-23T04:37:28;99304.50;;;27.82;31.18
73870;BME280;64924;42.140;24.762;2023-05-23T04:39:57;99298.88;;;28.35;30.23
73870;BME280;64924;42.140;24.762;2023-05-23T04:42:23;99291.34;;;27.82;31.01
73870;BME280;64924;42.140;24.762;2023-05-23T04:44:52;99312.50;;;27.75;31.20
73870;BME280;64924;42.140;24.762;2023-05-23T04:47:18;99299.81;;;28.22;30.71
73870;BME280;64924;42.140;24.762;2023-05-23T04:49:43;99305.00;;;28.85;30.07
73870;BME280;64924;42.140;24.762;2023-05-23T04:52:09;99309.50;;;28.55;29.67
73870;BME280;64924;42.140;24.762;2023-05-23T04:54:35;99302.09;;;28.59;30.05
73870;BME280;64924;42.140;24.762;2023-05-23T04:57:01;99308.69;;;29.12;29.71
73870;BME280;64924;42.140;24.762;2023-05-23T04:59:27;99305.19;;;30.10;28.45
73870;BME280;64924;42.140;24.762;2023-05-23T05:01:53;99313.75;;;30.98;27.12
73870;BME280;64924;42.140;24.762;2023-05-23T05:04:18;99291.63;;;31.47;26.51
73870;BME280;64924;42.140;24.762;2023-05-23T05:06:44;99304.84;;;32.00;25.39
73870;BME280;64924;42.140;24.762;2023-05-23T05:09:09;99279.63;;;32.37;25.14
73870;BME280;64924;42.140;24.762;2023-05-23T05:11:35;99294.31;;;32.67;24.92
73870;BME280;64924;42.140;24.762;2023-05-23T05:14:00;99295.84;;;32.64;24.22
73870;BME280;64924;42.140;24.762;2023-05-23T05:16:26;99297.00;;;32.06;24.94
73870;BME280;64924;42.140;24.762;2023-05-23T05:18:51;99297.53;;;32.32;24.73
73870;BME280;64924;42.140;24.762;2023-05-23T05:21:17;99304.34;;;31.23;25.89
73870;BME280;64924;42.140;24.762;2023-05-23T05:23:42;99305.66;;;30.97;26.43
73870;BME280;64924;42.140;24.762;2023-05-23T05:26:08;99322.53;;;30.03;27.36
73870;BME280;64924;42.140;24.762;2023-05-23T05:28:33;99312.63;;;28.62;29.08
73870;BME280;64924;42.140;24.762;2023-05-23T05:30:59;99275.66;;;27.28;31.06
73870;BME280;64924;42.140;24.762;2023-05-23T05:33:29;99315.78;;;26.91;32.10
73870;BME280;64924;42.140;24.762;2023-05-23T05:36:01;99319.53;;;25.67;34.24
73870;BME280;64924;42.140;24.762;2023-05-23T05:38:26;99295.81;;;25.18;35.01
73870;BME280;64924;42.140;24.762;2023-05-23T05:40:52;99343.38;;;25.16;35.65
73870;BME280;64924;42.140;24.762;2023-05-23T05:43:17;99311.88;;;25.40;35.69
73870;BME280;64924;42.140;24.762;2023-05-23T05:45:43;99342.31;;;25.50;35.58
73870;BME280;64924;42.140;24.762;2023-05-23T05:48:08;99305.34;;;24.88;36.48
73870;BME280;64924;42.140;24.762;2023-05-23T05:50:33;99330.47;;;24.83;37.13
73870;BME280;64924;42.140;24.762;2023-05-23T05:52:59;99337.28;;;24.90;37.22
73870;BME280;64924;42.140;24.762;2023-05-23T05:55:24;99332.56;;;25.15;36.69
73870;BME280;64924;42.140;24.762;2023-05-23T05:57:50;99329.09;;;25.60;35.96
73870;BME280;64924;42.140;24.762;2023-05-23T06:00:16;99338.53;;;26.57;34.60
73870;BME280;64924;42.140;24.762;2023-05-23T06:02:43;99324.19;;;28.08;31.86
73870;BME280;64924;42.140;24.762;2023-05-23T06:05:13;99331.53;;;30.26;28.55
73870;BME280;64924;42.140;24.762;2023-05-23T06:07:41;99324.13;;;30.77;27.47
73870;BME280;64924;42.140;24.762;2023-05-23T06:10:07;99313.06;;;31.72;26.00
73870;BME280;64924;42.140;24.762;2023-05-23T06:12:36;99330.06;;;32.54;25.23
73870;BME280;64924;42.140;24.762;2023-05-23T06:15:01;99310.66;;;33.50;24.10
73870;BME280;64924;42.140;24.762;2023-05-23T06:17:27;99324.94;;;34.57;22.34
73870;BME280;64924;42.140;24.762;2023-05-23T06:19:52;99296.00;;;35.26;21.98
73870;BME280;64924;42.140;24.762;2023-05-23T06:22:18;99316.59;;;36.42;20.67
73870;BME280;64924;42.140;24.762;2023-05-23T06:24:44;99309.69;;;37.12;19.96
73870;BME280;64924;42.140;24.762;2023-05-23T06:27:11;99308.09;;;36.65;20.08
73870;BME280;64924;42.140;24.762;2023-05-23T06:29:37;99313.69;;;36.85;19.76
73870;BME280;64924;42.140;24.762;2023-05-23T06:32:03;99308.66;;;36.29;19.98
73870;BME280;64924;42.140;24.762;2023-05-23T06:34:28;99309.81;;;34.96;22.04
73870;BME280;64924;42.140;24.762;2023-05-23T06:36:54;99313.84;;;35.30;21.71
73870;BME280;64924;42.140;24.762;2023-05-23T06:39:19;99311.69;;;35.59;21.59
73870;BME280;64924;42.140;24.762;2023-05-23T06:41:46;99315.00;;;35.45;21.59
73870;BME280;64924;42.140;24.762;2023-05-23T06:44:11;99310.94;;;35.27;21.85
73870;BME280;64924;42.140;24.762;2023-05-23T06:46:37;99306.47;;;34.43;22.94
73870;BME280;64924;42.140;24.762;2023-05-23T06:49:02;99305.91;;;35.36;22.34
73870;BME280;64924;42.140;24.762;2023-05-23T06:51:28;99303.06;;;36.32;20.93
73870;BME280;64924;42.140;24.762;2023-05-23T06:53:53;99296.38;;;36.44;20.73
73870;BME280;64924;42.140;24.762;2023-05-23T06:56:23;99293.28;;;37.25;20.34
73870;BME280;64924;42.140;24.762;2023-05-23T06:58:49;99292.97;;;37.63;19.39
73870;BME280;64924;42.140;24.762;2023-05-23T07:01:14;99268.09;;;37.79;19.18
73870;BME280;64924;42.140;24.762;2023-05-23T07:03:40;99295.94;;;38.44;18.61
73870;BME280;64924;42.140;24.762;2023-05-23T07:06:06;99288.75;;;39.05;18.14
73870;BME280;64924;42.140;24.762;2023-05-23T07:08:32;99292.78;;;39.66;17.51
73870;BME280;64924;42.140;24.762;2023-05-23T07:10:57;99286.22;;;39.55;17.13
73870;BME280;64924;42.140;24.762;2023-05-23T07:13:23;99280.47;;;38.38;18.18
73870;BME280;64924;42.140;24.762;2023-05-23T07:15:48;99284.25;;;37.75;19.23
73870;BME280;64924;42.140;24.762;2023-05-23T07:18:13;99294.84;;;37.48;19.26
73870;BME280;64924;42.140;24.762;2023-05-23T07:20:39;99246.47;;;37.68;19.06
73870;BME280;64924;42.140;24.762;2023-05-23T07:23:05;99294.09;;;38.63;18.54
73870;BME280;64924;42.140;24.762;2023-05-23T07:25:30;99290.69;;;38.91;18.26
73870;BME280;64924;42.140;24.762;2023-05-23T07:27:56;99284.06;;;39.31;17.66
73870;BME280;64924;42.140;24.762;2023-05-23T07:30:21;99263.59;;;39.07;17.86
73870;BME280;64924;42.140;24.762;2023-05-23T07:32:47;99288.34;;;39.03;18.12
73870;BME280;64924;42.140;24.762;2023-05-23T07:35:17;99281.22;;;38.76;18.49
73870;BME280;64924;42.140;24.762;2023-05-23T07:37:42;99277.38;;;39.05;18.34
73870;BME280;64924;42.140;24.762;2023-05-23T07:40:08;99270.59;;;38.66;18.57
73870;BME280;64924;42.140;24.762;2023-05-23T07:42:34;99264.63;;;38.34;18.57
73870;BME280;64924;42.140;24.762;2023-05-23T07:45:00;99281.91;;;38.59;18.22
73870;BME280;64924;42.140;24.762;2023-05-23T07:47:26;99277.06;;;39.18;17.89
73870;BME280;64924;42.140;24.762;2023-05-23T07:49:52;99277.34;;;38.98;17.92
73870;BME280;64924;42.140;24.762;2023-05-23T07:52:18;99250.34;;;38.71;18.20
73870;BME280;64924;42.140;24.762;2023-05-23T07:54:44;99271.31;;;39.07;17.86
73870;BME280;64924;42.140;24.762;2023-05-23T07:57:09;99272.69;;;39.38;17.63
73870;BME280;64924;42.140;24.762;2023-05-23T07:59:35;99275.44;;;39.17;17.40
73870;BME280;64924;42.140;24.762;2023-05-23T08:02:01;99263.78;;;39.36;17.52
73870;BME280;64924;42.140;24.762;2023-05-23T08:04:27;99268.25;;;39.44;17.06
73870;BME280;64924;42.140;24.762;2023-05-23T08:06:53;99247.78;;;39.10;17.47
73870;BME280;64924;42.140;24.762;2023-05-23T08:09:22;99262.56;;;38.75;17.85
73870;BME280;64924;42.140;24.762;2023-05-23T08:11:48;99265.16;;;38.98;17.67
73870;BME280;64924;42.140;24.762;2023-05-23T08:14:14;99264.84;;;39.14;17.30
73870;BME280;64924;42.140;24.762;2023-05-23T08:16:39;99260.91;;;39.29;16.65
73870;BME280;64924;42.140;24.762;2023-05-23T08:19:05;99239.41;;;39.35;16.39
73870;BME280;64924;42.140;24.762;2023-05-23T08:21:31;99238.97;;;39.36;16.42
73870;BME280;64924;42.140;24.762;2023-05-23T08:23:56;99255.09;;;39.11;16.10
73870;BME280;64924;42.140;24.762;2023-05-23T08:26:22;99262.56;;;38.75;16.48
73870;BME280;64924;42.140;24.762;2023-05-23T08:28:47;99257.28;;;37.59;17.44
73870;BME280;64924;42.140;24.762;2023-05-23T08:31:13;99234.06;;;36.90;17.84
73870;BME280;64924;42.140;24.762;2023-05-23T08:33:39;99264.50;;;36.47;19.16
73870;BME280;64924;42.140;24.762;2023-05-23T08:36:04;99252.25;;;36.39;18.66
73870;BME280;64924;42.140;24.762;2023-05-23T08:38:30;99261.59;;;36.66;18.13
73870;BME280;64924;42.140;24.762;2023-05-23T08:41:00;99221.41;;;36.57;18.61
73870;BME280;64924;42.140;24.762;2023-05-23T08:43:26;99253.09;;;36.66;18.18
73870;BME280;64924;42.140;24.762;2023-05-23T08:45:52;99220.81;;;35.99;18.79
73870;BME280;64924;42.140;24.762;2023-05-23T08:48:19;99254.59;;;35.92;19.16
73870;BME280;64924;42.140;24.762;2023-05-23T08:50:46;99231.41;;;35.44;19.41
73870;BME280;64924;42.140;24.762;2023-05-23T08:53:14;99264.34;;;33.91;21.34
73870;BME280;64924;42.140;24.762;2023-05-23T08:55:45;99264.13;;;33.56;21.47
73870;BME280;64924;42.140;24.762;2023-05-23T08:58:12;99267.53;;;33.34;21.81
73870;BME280;64924;42.140;24.762;2023-05-23T09:00:38;99233.94;;;32.64;21.80
73870;BME280;64924;42.140;24.762;2023-05-23T09:03:04;99262.06;;;32.52;21.39
73870;BME280;64924;42.140;24.762;2023-05-23T09:05:29;99252.22;;;32.58;21.39
73870;BME280;64924;42.140;24.762;2023-05-23T09:07:55;99216.41;;;31.65;21.77
73870;BME280;64924;42.140;24.762;2023-05-23T09:10:21;99251.50;;;31.58;22.58
73870;BME280;64924;42.140;24.762;2023-05-23T09:12:47;99260.63;;;31.76;22.42
73870;BME280;64924;42.140;24.762;2023-05-23T09:15:13;99254.78;;;31.28;22.59
73870;BME280;64924;42.140;24.762;2023-05-23T09:17:39;99223.94;;;30.98;22.40
73870;BME280;64924;42.140;24.762;2023-05-23T09:20:15;99217.56;;;31.18;22.33
73870;BME280;64924;42.140;24.762;2023-05-23T09:22:48;99257.47;;;30.95;23.43
73870;BME280;64924;42.140;24.762;2023-05-23T09:25:14;99255.78;;;30.43;24.20
73870;BME280;64924;42.140;24.762;2023-05-23T09:27:42;99245.94;;;30.67;23.97
73870;BME280;64924;42.140;24.762;2023-05-23T09:30:09;99258.03;;;30.58;22.97
73870;BME280;64924;42.140;24.762;2023-05-23T09:32:35;99264.75;;;29.64;24.37
73870;BME280;64924;42.140;24.762;2023-05-23T09:35:03;99271.44;;;29.89;24.29
73870;BME280;64924;42.140;24.762;2023-05-23T09:37:37;99255.47;;;29.72;24.65
73870;BME280;64924;42.140;24.762;2023-05-23T09:40:11;99266.22;;;29.70;25.11
73870;BME280;64924;42.140;24.762;2023-05-23T09:42:46;99257.66;;;29.41;25.28
73870;BME280;64924;42.140;24.762;2023-05-23T09:45:12;99247.94;;;29.21;25.66
73870;BME280;64924;42.140;24.762;2023-05-23T09:47:38;99236.75;;;29.12;25.40
73870;BME280;64924;42.140;24.762;2023-05-23T09:50:13;99249.75;;;29.51;25.41
73870;BME280;64924;42.140;24.762;2023-05-23T09:52:38;99253.88;;;29.54;25.08
73870;BME280;64924;42.140;24.762;2023-05-23T09:55:05;99254.63;;;29.89;25.09
73870;BME280;64924;42.140;24.762;2023-05-23T09:57:39;99213.31;;;29.77;25.28
73870;BME280;64924;42.140;24.762;2023-05-23T10:00:07;99249.97;;;30.10;25.15
73870;BME280;64924;42.140;24.762;2023-05-23T10:03:07;99246.66;;;30.17;24.23
73870;BME280;64924;42.140;24.762;2023-05-23T10:05:47;99252.16;;;29.87;24.17
73870;BME280;64924;42.140;24.762;2023-05-23T10:08:15;99248.78;;;29.56;25.08
73870;BME280;64924;42.140;24.762;2023-05-23T10:13:21;99242.03;;;29.57;25.23
73870;BME280;64924;42.140;24.762;2023-05-23T10:15:48;99238.97;;;29.97;24.80
73870;BME280;64924;42.140;24.762;2023-05-23T10:18:19;99230.63;;;30.26;25.10
73870;BME280;64924;42.140;24.762;2023-05-23T10:20:48;99215.78;;;30.55;24.05
73870;BME280;64924;42.140;24.762;2023-05-23T10:23:14;99192.94;;;30.44;23.61
73870;BME280;64924;42.140;24.762;2023-05-23T10:25:41;99238.25;;;30.46;24.36
73870;BME280;64924;42.140;24.762;2023-05-23T10:28:08;99191.88;;;29.73;24.48
73870;BME280;64924;42.140;24.762;2023-05-23T10:30:34;99240.47;;;29.85;24.47
73870;BME280;64924;42.140;24.762;2023-05-23T10:33:01;99198.38;;;29.65;24.71
73870;BME280;64924;42.140;24.762;2023-05-23T10:35:48;99232.72;;;29.82;25.05
73870;BME280;64924;42.140;24.762;2023-05-23T10:41:17;99229.31;;;29.68;25.49
73870;BME280;64924;42.140;24.762;2023-05-23T10:46:13;99236.09;;;29.33;26.11
73870;BME280;64924;42.140;24.762;2023-05-23T10:48:43;99234.59;;;29.35;25.92
73870;BME280;64924;42.140;24.762;2023-05-23T10:51:13;99224.75;;;29.20;26.08
73870;BME280;64924;42.140;24.762;2023-05-23T10:53:41;99224.75;;;28.94;27.28
73870;BME280;64924;42.140;24.762;2023-05-23T10:56:10;99229.00;;;28.83;27.47
73870;BME280;64924;42.140;24.762;2023-05-23T10:58:37;99212.56;;;29.16;27.69
73870;BME280;64924;42.140;24.762;2023-05-23T11:01:12;99229.50;;;29.28;27.48
73870;BME280;64924;42.140;24.762;2023-05-23T11:09:11;99226.22;;;29.09;27.15
73870;BME280;64924;42.140;24.762;2023-05-23T11:12:02;99228.84;;;29.66;26.91
73870;BME280;64924;42.140;24.762;2023-05-23T11:16:59;99216.81;;;30.12;26.29
73870;BME280;64924;42.140;24.762;2023-05-23T11:19:26;99229.75;;;30.05;25.99
73870;BME280;64924;42.140;24.762;2023-05-23T11:22:02;99227.03;;;29.62;26.46
73870;BME280;64924;42.140;24.762;2023-05-23T11:24:55;99235.41;;;29.36;27.27
73870;BME280;64924;42.140;24.762;2023-05-23T11:27:37;99227.63;;;28.55;28.15
73870;BME280;64924;42.140;24.762;2023-05-23T11:30:14;99231.19;;;28.07;28.50
73870;BME280;64924;42.140;24.762;2023-05-23T11:32:41;99201.50;;;27.80;28.29
73870;BME280;64924;42.140;24.762;2023-05-23T11:35:08;99162.44;;;27.89;28.23
73870;BME280;64924;42.140;24.762;2023-05-23T11:37:35;99230.44;;;28.24;27.91
73870;BME280;64924;42.140;24.762;2023-05-23T11:40:24;99230.56;;;28.67;27.08
73870;BME280;64924;42.140;24.762;2023-05-23T11:42:50;99230.22;;;28.60;26.49
73870;BME280;64924;42.140;24.762;2023-05-23T11:45:18;99237.63;;;28.47;26.25
73870;BME280;64924;42.140;24.762;2023-05-23T11:47:44;99241.91;;;28.53;26.17
73870;BME280;64924;42.140;24.762;2023-05-23T11:50:10;99226.28;;;28.52;26.35
73870;BME280;64924;42.140;24.762;2023-05-23T11:52:35;99220.63;;;28.92;25.87
73870;BME280;64924;42.140;24.762;2023-05-23T11:55:01;99220.78;;;29.04;26.05
73870;BME280;64924;42.140;24.762;2023-05-23T11:57:29;99246.22;;;28.77;26.18
73870;BME280;64924;42.140;24.762;2023-05-23T11:59:54;99217.97;;;27.59;32.55
73870;BME280;64924;42.140;24.762;2023-05-23T12:02:20;99242.28;;;27.01;35.12
73870;BME280;64924;42.140;24.762;2023-05-23T12:04:49;99249.13;;;26.40;36.23
73870;BME280;64924;42.140;24.762;2023-05-23T12:07:18;99253.56;;;26.13;36.58
73870;BME280;64924;42.140;24.762;2023-05-23T12:09:44;99255.69;;;26.03;36.84
73870;BME280;64924;42.140;24.762;2023-05-23T12:12:11;99273.97;;;25.95;35.26
73870;BME280;64924;42.140;24.762;2023-05-23T12:14:37;99250.19;;;25.70;35.20
73870;BME280;64924;42.140;24.762;2023-05-23T12:17:11;99241.78;;;25.56;34.72
73870;BME280;64924;42.140;24.762;2023-05-23T12:19:37;99238.16;;;25.23;34.52
73870;BME280;64924;42.140;24.762;2023-05-23T12:22:06;99253.16;;;25.41;34.82
73870;BME280;64924;42.140;24.762;2023-05-23T12:24:32;99249.47;;;25.46;34.93
73870;BME280;64924;42.140;24.762;2023-05-23T12:27:00;99230.34;;;25.58;34.91
73870;BME280;64924;42.140;24.762;2023-05-23T12:29:31;99229.91;;;25.83;34.59
73870;BME280;64924;42.140;24.762;2023-05-23T12:32:00;99229.41;;;25.62;35.13
73870;BME280;64924;42.140;24.762;2023-05-23T12:34:27;99233.00;;;25.49;35.37
73870;BME280;64924;42.140;24.762;2023-05-23T12:36:57;99221.28;;;25.33;35.83
73870;BME280;64924;42.140;24.762;2023-05-23T12:39:27;99227.38;;;25.36;34.98
73870;BME280;64924;42.140;24.762;2023-05-23T12:42:06;99180.91;;;25.04;35.59
73870;BME280;64924;42.140;24.762;2023-05-23T12:44:32;99230.69;;;25.38;35.74
73870;BME280;64924;42.140;24.762;2023-05-23T12:46:58;99197.66;;;25.50;35.23
73870;BME280;64924;42.140;24.762;2023-05-23T12:49:23;99203.97;;;25.55;35.36
73870;BME280;64924;42.140;24.762;2023-05-23T12:51:49;99184.41;;;25.60;35.32
73870;BME280;64924;42.140;24.762;2023-05-23T12:54:14;99200.28;;;25.74;34.97
73870;BME280;64924;42.140;24.762;2023-05-23T12:56:40;99194.25;;;25.85;34.68
73870;BME280;64924;42.140;24.762;2023-05-23T12:59:05;99200.22;;;25.79;34.53
73870;BME280;64924;42.140;24.762;2023-05-23T13:01:33;99188.06;;;25.88;34.81
73870;BME280;64924;42.140;24.762;2023-05-23T13:03:59;99187.03;;;26.12;34.77
73870;BME280;64924;42.140;24.762;2023-05-23T13:06:25;99160.50;;;26.01;35.27
73870;BME280;64924;42.140;24.762;2023-05-23T13:08:51;99176.91;;;26.02;35.04
73870;BME280;64924;42.140;24.762;2023-05-23T13:11:18;99180.72;;;26.06;35.11